sensor_id;sensor_type;location;lat;lon;timestamp;P1;durP1;ratioP1;P2;durP2;ratioP2
20802;SDS011;10562;-33.856;151.182;2023-07-13T00:01:49;14.50;;;6.00;;
20802;SDS011;10562;-33.856;151.182;2023-07-13T00:04:23;17.48;;;5.22;;
20802;SDS011;10562;-33.856;151.182;2023-07-13T00:06:54;17.73;;;5.00;;
20802;SDS011;10562;-33.856;151.182;2023-07-13T00:09:24;17.85;;;5.07;;
20802;SDS011;10562;-33.856;151.182;2023-07-13T00:11:56;18.35;;;5.90;;
20802;SDS011;10562;-33.856;151.182;2023-07-13T00:14:28;12.15;;;5.72;;
20802;SDS011;10562;-33.856;151.182;2023-07-13T00:17:00;11.68;;;5.60;;
20802;SDS011;10562;-33.856;151.182;2023-07-13T00:19:33;13.73;;;5.78;;
20802;SDS011;10562;-33.856;151.182;2023-07-13T00:22:04;15.57;;;6.00;;
20802;SDS011;10562;-33.856;151.182;2023-07-13T00:24:35;14.25;;;5.95;;
20802;SDS011;10562;-33.856;151.182;2023-07-13T00:36:08;7.97;;;3.45;;
20802;SDS011;10562;-33.856;151.182;2023-07-13T00:38:41;9.75;;;3.58;;
20802;SDS011;10562;-33.856;151.182;2023-07-13T00:41:12;124.15;;;12.73;;
20802;SDS011;10562;-33.856;151.182;2023-07-13T00:43:43;8.38;;;3.78;;
20802;SDS011;10562;-33.856;151.182;2023-07-13T00:46:15;8.13;;;3.30;;
20802;SDS011;10562;-33.856;151.182;2023-07-13T00:48:56;10.82;;;3.90;;
20802;SDS011;10562;-33.856;151.182;2023-07-13T00:51:34;6.82;;;3.53;;
20802;SDS011;10562;-33.856;151.182;2023-07-13T00:54:09;8.55;;;3.60;;
20802;SDS011;10562;-33.856;151.182;2023-07-13T00:56:42;7.05;;;3.28;;
20802;SDS011;10562;-33.856;151.182;2023-07-13T00:59:15;8.23;;;3.60;;
20802;SDS011;10562;-33.856;151.182;2023-07-13T01:01:47;8.15;;;3.55;;
20802;SDS011;10562;-33.856;151.182;2023-07-13T01:04:18;14.10;;;3.58;;
20802;SDS011;10562;-33.856;151.182;2023-07-13T01:06:51;9.07;;;3.80;;
20802;SDS011;10562;-33.856;151.182;2023-07-13T01:09:23;9.65;;;3.38;;
20802;SDS011;10562;-33.856;151.182;2023-07-13T01:11:55;9.30;;;3.42;;
20802;SDS011;10562;-33.856;151.182;2023-07-13T01:14:26;7.40;;;3.65;;
20802;SDS011;10562;-33.856;151.182;2023-07-13T01:16:57;8.43;;;3.42;;
20802;SDS011;10562;-33.856;151.182;2023-07-13T01:19:32;10.82;;;3.75;;
20802;SDS011;10562;-33.856;151.182;2023-07-13T01:22:09;6.78;;;3.10;;
20802;SDS011;10562;-33.856;151.182;2023-07-13T01:24:40;9.13;;;3.58;;
20802;SDS011;10562;-33.856;151.182;2023-07-13T01:27:13;9.75;;;3.40;;
20802;SDS011;10562;-33.856;151.182;2023-07-13T01:29:44;12.40;;;3.50;;
20802;SDS011;10562;-33.856;151.182;2023-07-13T01:32:16;9.23;;;3.38;;
20802;SDS011;10562;-33.856;151.182;2023-07-13T01:34:50;10.10;;;3.40;;
20802;SDS011;10562;-33.856;151.182;2023-07-13T01:37:24;7.63;;;3.08;;
20802;SDS011;10562;-33.856;151.182;2023-07-13T01:39:59;7.53;;;2.58;;
20802;SDS011;10562;-33.856;151.182;2023-07-13T01:42:30;8.65;;;3.10;;
20802;SDS011;10562;-33.856;151.182;2023-07-13T01:45:01;9.00;;;3.00;;
20802;SDS011;10562;-33.856;151.182;2023-07-13T01:47:32;9.98;;;2.45;;
20802;SDS011;10562;-33.856;151.182;2023-07-13T01:50:03;8.23;;;2.20;;
20802;SDS011;10562;-33.856;151.182;2023-07-13T01:52:36;5.50;;;1.83;;
20802;SDS011;10562;-33.856;151.182;2023-07-13T01:55:07;7.28;;;3.05;;
20802;SDS011;10562;-33.856;151.182;2023-07-13T01:57:38;7.25;;;2.80;;
20802;SDS011;10562;-33.856;151.182;2023-07-13T02:00:10;7.75;;;2.20;;
20802;SDS011;10562;-33.856;151.182;2023-07-13T02:02:42;6.78;;;2.65;;
20802;SDS011;10562;-33.856;151.182;2023-07-13T02:05:13;9.52;;;3.13;;
20802;SDS011;10562;-33.856;151.182;2023-07-13T02:07:46;6.53;;;2.75;;
20802;SDS011;10562;-33.856;151.182;2023-07-13T02:10:17;6.85;;;2.35;;
20802;SDS011;10562;-33.856;151.182;2023-07-13T02:12:48;5.93;;;2.13;;
20802;SDS011;10562;-33.856;151.182;2023-07-13T02:15:19;5.82;;;2.15;;
20802;SDS011;10562;-33.856;151.182;2023-07-13T02:17:50;5.20;;;1.90;;
20802;SDS011;10562;-33.856;151.182;2023-07-13T02:20:21;4.75;;;2.05;;
20802;SDS011;10562;-33.856;151.182;2023-07-13T02:22:54;2.97;;;1.80;;
20802;SDS011;10562;-33.856;151.182;2023-07-13T02:25:25;4.30;;;1.73;;
20802;SDS011;10562;-33.856;151.182;2023-07-13T02:27:56;5.47;;;2.00;;
20802;SDS011;10562;-33.856;151.182;2023-07-13T02:30:27;3.53;;;1.80;;
20802;SDS011;10562;-33.856;151.182;2023-07-13T02:32:58;3.55;;;1.50;;
20802;SDS011;10562;-33.856;151.182;2023-07-13T02:35:29;4.28;;;1.83;;
20802;SDS011;10562;-33.856;151.182;2023-07-13T02:38:02;4.30;;;1.70;;
20802;SDS011;10562;-33.856;151.182;2023-07-13T02:40:33;4.57;;;1.65;;
20802;SDS011;10562;-33.856;151.182;2023-07-13T02:43:04;4.25;;;1.65;;
20802;SDS011;10562;-33.856;151.182;2023-07-13T02:45:35;2.85;;;1.25;;
20802;SDS011;10562;-33.856;151.182;2023-07-13T02:48:06;5.45;;;1.60;;
20802;SDS011;10562;-33.856;151.182;2023-07-13T02:50:37;4.18;;;1.40;;
20802;SDS011;10562;-33.856;151.182;2023-07-13T02:53:11;2.88;;;1.60;;
20802;SDS011;10562;-33.856;151.182;2023-07-13T02:55:42;4.88;;;1.60;;
20802;SDS011;10562;-33.856;151.182;2023-07-13T02:58:13;6.53;;;1.58;;
20802;SDS011;10562;-33.856;151.182;2023-07-13T03:00:45;2.70;;;1.63;;
20802;SDS011;10562;-33.856;151.182;2023-07-13T03:03:17;4.03;;;1.67;;
20802;SDS011;10562;-33.856;151.182;2023-07-13T03:05:48;5.50;;;1.40;;
20802;SDS011;10562;-33.856;151.182;2023-07-13T03:08:28;4.38;;;1.50;;
20802;SDS011;10562;-33.856;151.182;2023-07-13T03:11:00;3.40;;;1.60;;
20802;SDS011;10562;-33.856;151.182;2023-07-13T03:13:34;3.42;;;1.63;;
20802;SDS011;10562;-33.856;151.182;2023-07-13T03:16:05;3.00;;;1.55;;
20802;SDS011;10562;-33.856;151.182;2023-07-13T03:18:37;2.63;;;1.48;;
20802;SDS011;10562;-33.856;151.182;2023-07-13T03:21:08;3.40;;;1.50;;
20802;SDS011;10562;-33.856;151.182;2023-07-13T03:23:42;4.15;;;1.80;;
20802;SDS011;10562;-33.856;151.182;2023-07-13T03:26:14;3.60;;;1.63;;
20802;SDS011;10562;-33.856;151.182;2023-07-13T03:28:47;6.40;;;1.60;;
20802;SDS011;10562;-33.856;151.182;2023-07-13T03:31:18;6.65;;;1.60;;
20802;SDS011;10562;-33.856;151.182;2023-07-13T03:33:52;4.40;;;1.40;;
20802;SDS011;10562;-33.856;151.182;2023-07-13T03:36:25;5.28;;;1.58;;
20802;SDS011;10562;-33.856;151.182;2023-07-13T03:39:01;7.55;;;1.60;;
20802;SDS011;10562;-33.856;151.182;2023-07-13T03:41:34;5.63;;;1.50;;
20802;SDS011;10562;-33.856;151.182;2023-07-13T03:44:05;7.60;;;1.83;;
20802;SDS011;10562;-33.856;151.182;2023-07-13T03:46:37;5.43;;;1.30;;
20802;SDS011;10562;-33.856;151.182;2023-07-13T03:49:08;3.00;;;1.60;;
20802;SDS011;10562;-33.856;151.182;2023-07-13T03:51:39;3.15;;;1.30;;
20802;SDS011;10562;-33.856;151.182;2023-07-13T03:54:12;3.38;;;1.45;;
20802;SDS011;10562;-33.856;151.182;2023-07-13T03:56:43;5.97;;;1.65;;
20802;SDS011;10562;-33.856;151.182;2023-07-13T03:59:14;5.10;;;1.30;;
20802;SDS011;10562;-33.856;151.182;2023-07-13T04:01:45;3.03;;;1.60;;
20802;SDS011;10562;-33.856;151.182;2023-07-13T04:04:16;2.78;;;1.30;;
20802;SDS011;10562;-33.856;151.182;2023-07-13T04:06:47;4.43;;;1.23;;
20802;SDS011;10562;-33.856;151.182;2023-07-13T04:09:21;2.30;;;1.20;;
20802;SDS011;10562;-33.856;151.182;2023-07-13T04:11:52;2.58;;;1.35;;
20802;SDS011;10562;-33.856;151.182;2023-07-13T04:14:24;3.28;;;1.50;;
20802;SDS011;10562;-33.856;151.182;2023-07-13T04:16:55;3.95;;;1.45;;
20802;SDS011;10562;-33.856;151.182;2023-07-13T04:19:26;3.05;;;1.20;;
20802;SDS011;10562;-33.856;151.182;2023-07-13T04:21:57;4.05;;;1.58;;
20802;SDS011;10562;-33.856;151.182;2023-07-13T04:24:30;4.80;;;1.52;;
20802;SDS011;10562;-33.856;151.182;2023-07-13T04:27:01;6.97;;;1.50;;
20802;SDS011;10562;-33.856;151.182;2023-07-13T04:29:33;3.35;;;1.40;;
20802;SDS011;10562;-33.856;151.182;2023-07-13T04:32:04;4.90;;;1.40;;
20802;SDS011;10562;-33.856;151.182;2023-07-13T04:34:36;4.38;;;1.40;;
20802;SDS011;10562;-33.856;151.182;2023-07-13T04:37:07;3.80;;;1.63;;
20802;SDS011;10562;-33.856;151.182;2023-07-13T04:39:40;4.07;;;1.20;;
20802;SDS011;10562;-33.856;151.182;2023-07-13T04:42:11;3.55;;;1.27;;
20802;SDS011;10562;-33.856;151.182;2023-07-13T04:44:46;3.35;;;1.15;;
20802;SDS011;10562;-33.856;151.182;2023-07-13T04:47:18;2.67;;;1.20;;
20802;SDS011;10562;-33.856;151.182;2023-07-13T04:49:48;2.03;;;1.30;;
20802;SDS011;10562;-33.856;151.182;2023-07-13T04:52:19;1.95;;;1.10;;
20802;SDS011;10562;-33.856;151.182;2023-07-13T04:54:52;2.55;;;1.20;;
20802;SDS011;10562;-33.856;151.182;2023-07-13T04:57:23;2.63;;;1.30;;
20802;SDS011;10562;-33.856;151.182;2023-07-13T04:59:54;3.22;;;1.15;;
20802;SDS011;10562;-33.856;151.182;2023-07-13T05:02:27;2.92;;;1.20;;
20802;SDS011;10562;-33.856;151.182;2023-07-13T05:04:59;2.72;;;1.20;;
20802;SDS011;10562;-33.856;151.182;2023-07-13T05:07:30;2.00;;;1.20;;
20802;SDS011;10562;-33.856;151.182;2023-07-13T05:10:03;3.97;;;1.17;;
20802;SDS011;10562;-33.856;151.182;2023-07-13T05:12:35;2.88;;;1.30;;
20802;SDS011;10562;-33.856;151.182;2023-07-13T05:15:06;3.92;;;1.17;;
20802;SDS011;10562;-33.856;151.182;2023-07-13T05:17:38;3.85;;;1.27;;
20802;SDS011;10562;-33.856;151.182;2023-07-13T05:20:09;4.10;;;1.30;;
20802;SDS011;10562;-33.856;151.182;2023-07-13T05:22:40;2.95;;;1.50;;
20802;SDS011;10562;-33.856;151.182;2023-07-13T05:25:16;4.47;;;1.30;;
20802;SDS011;10562;-33.856;151.182;2023-07-13T05:27:47;2.45;;;1.35;;
20802;SDS011;10562;-33.856;151.182;2023-07-13T05:30:18;3.20;;;1.20;;
20802;SDS011;10562;-33.856;151.182;2023-07-13T05:32:49;3.20;;;1.48;;
20802;SDS011;10562;-33.856;151.182;2023-07-13T05:35:20;4.78;;;1.63;;
20802;SDS011;10562;-33.856;151.182;2023-07-13T05:37:51;4.15;;;1.52;;
20802;SDS011;10562;-33.856;151.182;2023-07-13T05:40:25;5.97;;;1.80;;
20802;SDS011;10562;-33.856;151.182;2023-07-13T05:42:56;4.05;;;2.15;;
20802;SDS011;10562;-33.856;151.182;2023-07-13T05:45:28;6.85;;;2.25;;
20802;SDS011;10562;-33.856;151.182;2023-07-13T05:47:59;7.05;;;2.28;;
20802;SDS011;10562;-33.856;151.182;2023-07-13T05:50:30;7.30;;;2.55;;
20802;SDS011;10562;-33.856;151.182;2023-07-13T05:53:06;9.48;;;2.15;;
20802;SDS011;10562;-33.856;151.182;2023-07-13T05:55:44;4.65;;;2.40;;
20802;SDS011;10562;-33.856;151.182;2023-07-13T05:58:19;7.47;;;2.35;;
20802;SDS011;10562;-33.856;151.182;2023-07-13T06:00:57;12.07;;;2.47;;
20802;SDS011;10562;-33.856;151.182;2023-07-13T06:03:29;12.50;;;2.65;;
20802;SDS011;10562;-33.856;151.182;2023-07-13T06:06:00;7.25;;;2.40;;
20802;SDS011;10562;-33.856;151.182;2023-07-13T06:08:31;5.65;;;2.47;;
20802;SDS011;10562;-33.856;151.182;2023-07-13T06:11:05;4.95;;;2.40;;
20802;SDS011;10562;-33.856;151.182;2023-07-13T06:13:36;7.65;;;2.72;;
20802;SDS011;10562;-33.856;151.182;2023-07-13T06:16:07;6.25;;;2.38;;
20802;SDS011;10562;-33.856;151.182;2023-07-13T06:18:38;5.18;;;2.30;;
20802;SDS011;10562;-33.856;151.182;2023-07-13T06:21:10;6.70;;;2.58;;
20802;SDS011;10562;-33.856;151.182;2023-07-13T06:23:42;7.40;;;2.45;;
20802;SDS011;10562;-33.856;151.182;2023-07-13T06:26:16;4.78;;;2.22;;
20802;SDS011;10562;-33.856;151.182;2023-07-13T06:28:47;4.97;;;2.20;;
20802;SDS011;10562;-33.856;151.182;2023-07-13T06:31:18;3.78;;;1.92;;
20802;SDS011;10562;-33.856;151.182;2023-07-13T06:33:48;6.80;;;2.20;;
20802;SDS011;10562;-33.856;151.182;2023-07-13T06:36:19;4.63;;;1.98;;
20802;SDS011;10562;-33.856;151.182;2023-07-13T06:38:50;7.97;;;1.98;;
20802;SDS011;10562;-33.856;151.182;2023-07-13T06:41:23;6.57;;;2.20;;
20802;SDS011;10562;-33.856;151.182;2023-07-13T06:43:54;6.70;;;2.10;;
20802;SDS011;10562;-33.856;151.182;2023-07-13T06:46:25;9.00;;;2.00;;
20802;SDS011;10562;-33.856;151.182;2023-07-13T06:48:57;4.18;;;2.17;;
20802;SDS011;10562;-33.856;151.182;2023-07-13T06:51:29;4.78;;;2.00;;
20802;SDS011;10562;-33.856;151.182;2023-07-13T06:54:00;7.88;;;2.30;;
20802;SDS011;10562;-33.856;151.182;2023-07-13T06:56:33;6.82;;;2.30;;
20802;SDS011;10562;-33.856;151.182;2023-07-13T06:59:03;6.28;;;2.25;;
20802;SDS011;10562;-33.856;151.182;2023-07-13T07:01:34;8.40;;;2.20;;
20802;SDS011;10562;-33.856;151.182;2023-07-13T07:04:05;4.78;;;2.08;;
20802;SDS011;10562;-33.856;151.182;2023-07-13T07:06:36;5.00;;;2.38;;
20802;SDS011;10562;-33.856;151.182;2023-07-13T07:09:06;6.22;;;2.40;;
20802;SDS011;10562;-33.856;151.182;2023-07-13T07:11:39;5.00;;;2.03;;
20802;SDS011;10562;-33.856;151.182;2023-07-13T07:14:10;4.88;;;2.10;;
20802;SDS011;10562;-33.856;151.182;2023-07-13T07:16:41;5.57;;;2.10;;
20802;SDS011;10562;-33.856;151.182;2023-07-13T07:19:12;9.65;;;2.28;;
20802;SDS011;10562;-33.856;151.182;2023-07-13T07:21:43;7.00;;;2.28;;
20802;SDS011;10562;-33.856;151.182;2023-07-13T07:24:14;13.93;;;2.35;;
20802;SDS011;10562;-33.856;151.182;2023-07-13T07:26:47;6.75;;;2.10;;
20802;SDS011;10562;-33.856;151.182;2023-07-13T07:29:18;7.38;;;2.45;;
20802;SDS011;10562;-33.856;151.182;2023-07-13T07:31:48;8.27;;;2.20;;
20802;SDS011;10562;-33.856;151.182;2023-07-13T07:34:19;8.57;;;2.45;;
20802;SDS011;10562;-33.856;151.182;2023-07-13T07:36:50;8.52;;;2.30;;
20802;SDS011;10562;-33.856;151.182;2023-07-13T07:39:22;10.13;;;2.70;;
20802;SDS011;10562;-33.856;151.182;2023-07-13T07:41:55;15.68;;;3.08;;
20802;SDS011;10562;-33.856;151.182;2023-07-13T07:44:26;10.88;;;2.80;;
20802;SDS011;10562;-33.856;151.182;2023-07-13T07:46:56;6.30;;;2.35;;
20802;SDS011;10562;-33.856;151.182;2023-07-13T07:49:27;8.90;;;2.70;;
20802;SDS011;10562;-33.856;151.182;2023-07-13T07:51:58;7.10;;;2.60;;
20802;SDS011;10562;-33.856;151.182;2023-07-13T07:54:29;7.30;;;2.72;;
20802;SDS011;10562;-33.856;151.182;2023-07-13T07:57:01;9.25;;;2.60;;
20802;SDS011;10562;-33.856;151.182;2023-07-13T07:59:33;6.15;;;2.42;;
20802;SDS011;10562;-33.856;151.182;2023-07-13T08:02:05;4.97;;;2.38;;
20802;SDS011;10562;-33.856;151.182;2023-07-13T08:04:37;6.40;;;2.63;;
20802;SDS011;10562;-33.856;151.182;2023-07-13T08:07:08;11.18;;;2.70;;
20802;SDS011;10562;-33.856;151.182;2023-07-13T08:09:39;6.72;;;2.63;;
20802;SDS011;10562;-33.856;151.182;2023-07-13T08:12:12;8.00;;;2.17;;
20802;SDS011;10562;-33.856;151.182;2023-07-13T08:14:42;6.03;;;2.13;;
20802;SDS011;10562;-33.856;151.182;2023-07-13T08:17:13;7.18;;;2.95;;
20802;SDS011;10562;-33.856;151.182;2023-07-13T08:19:44;7.03;;;2.50;;
20802;SDS011;10562;-33.856;151.182;2023-07-13T08:22:15;7.45;;;2.40;;
20802;SDS011;10562;-33.856;151.182;2023-07-13T08:24:46;6.57;;;2.33;;
20802;SDS011;10562;-33.856;151.182;2023-07-13T08:27:24;6.07;;;2.58;;
20802;SDS011;10562;-33.856;151.182;2023-07-13T08:29:55;8.13;;;2.38;;
20802;SDS011;10562;-33.856;151.182;2023-07-13T08:32:26;10.40;;;2.42;;
20802;SDS011;10562;-33.856;151.182;2023-07-13T08:34:57;6.90;;;2.83;;
20802;SDS011;10562;-33.856;151.182;2023-07-13T08:37:28;5.72;;;2.90;;
20802;SDS011;10562;-33.856;151.182;2023-07-13T08:39:59;7.45;;;3.20;;
20802;SDS011;10562;-33.856;151.182;2023-07-13T08:42:35;8.30;;;2.88;;
20802;SDS011;10562;-33.856;151.182;2023-07-13T08:45:14;7.70;;;2.38;;
20802;SDS011;10562;-33.856;151.182;2023-07-13T08:47:49;7.15;;;2.63;;
20802;SDS011;10562;-33.856;151.182;2023-07-13T08:50:24;5.75;;;2.72;;
20802;SDS011;10562;-33.856;151.182;2023-07-13T08:52:59;6.20;;;2.85;;
20802;SDS011;10562;-33.856;151.182;2023-07-13T08:55:33;7.45;;;3.25;;
20802;SDS011;10562;-33.856;151.182;2023-07-13T08:58:09;6.55;;;3.05;;
20802;SDS011;10562;-33.856;151.182;2023-07-13T09:00:43;7.57;;;3.33;;
20802;SDS011;10562;-33.856;151.182;2023-07-13T09:03:21;6.53;;;3.10;;
20802;SDS011;10562;-33.856;151.182;2023-07-13T09:05:56;6.25;;;3.25;;
20802;SDS011;10562;-33.856;151.182;2023-07-13T09:08:34;6.20;;;3.65;;
20802;SDS011;10562;-33.856;151.182;2023-07-13T09:11:18;10.60;;;4.22;;
20802;SDS011;10562;-33.856;151.182;2023-07-13T09:14:12;16.45;;;5.05;;
20802;SDS011;10562;-33.856;151.182;2023-07-13T09:17:14;8.88;;;4.30;;
20802;SDS011;10562;-33.856;151.182;2023-07-13T09:19:48;9.30;;;5.15;;
20802;SDS011;10562;-33.856;151.182;2023-07-13T09:22:24;9.70;;;4.93;;
20802;SDS011;10562;-33.856;151.182;2023-07-13T09:24:57;9.15;;;5.00;;
20802;SDS011;10562;-33.856;151.182;2023-07-13T09:27:31;11.57;;;5.22;;
20802;SDS011;10562;-33.856;151.182;2023-07-13T09:30:20;12.98;;;5.47;;
20802;SDS011;10562;-33.856;151.182;2023-07-13T09:32:58;13.98;;;5.88;;
20802;SDS011;10562;-33.856;151.182;2023-07-13T09:35:28;12.27;;;6.00;;
20802;SDS011;10562;-33.856;151.182;2023-07-13T09:38:03;15.10;;;7.78;;
20802;SDS011;10562;-33.856;151.182;2023-07-13T09:40:53;16.20;;;8.40;;
20802;SDS011;10562;-33.856;151.182;2023-07-13T09:43:35;14.70;;;7.25;;
20802;SDS011;10562;-33.856;151.182;2023-07-13T09:46:12;12.27;;;6.50;;
20802;SDS011;10562;-33.856;151.182;2023-07-13T09:48:50;15.13;;;6.35;;
20802;SDS011;10562;-33.856;151.182;2023-07-13T09:51:21;14.48;;;6.40;;
20802;SDS011;10562;-33.856;151.182;2023-07-13T09:53:51;17.27;;;5.97;;
20802;SDS011;10562;-33.856;151.182;2023-07-13T09:56:26;14.07;;;5.05;;
20802;SDS011;10562;-33.856;151.182;2023-07-13T09:58:58;9.60;;;4.95;;
20802;SDS011;10562;-33.856;151.182;2023-07-13T10:01:34;13.13;;;4.43;;
20802;SDS011;10562;-33.856;151.182;2023-07-13T10:04:10;9.95;;;4.00;;
20802;SDS011;10562;-33.856;151.182;2023-07-13T10:06:42;14.50;;;4.70;;
20802;SDS011;10562;-33.856;151.182;2023-07-13T10:09:15;8.80;;;4.00;;
20802;SDS011;10562;-33.856;151.182;2023-07-13T10:11:46;8.65;;;3.22;;
20802;SDS011;10562;-33.856;151.182;2023-07-13T10:14:20;5.70;;;2.97;;
20802;SDS011;10562;-33.856;151.182;2023-07-13T10:16:55;9.70;;;3.47;;
20802;SDS011;10562;-33.856;151.182;2023-07-13T10:19:31;8.48;;;3.47;;
20802;SDS011;10562;-33.856;151.182;2023-07-13T10:22:10;5.70;;;2.72;;
20802;SDS011;10562;-33.856;151.182;2023-07-13T10:24:54;8.60;;;2.70;;
20802;SDS011;10562;-33.856;151.182;2023-07-13T10:27:28;9.10;;;4.53;;
20802;SDS011;10562;-33.856;151.182;2023-07-13T10:30:04;9.68;;;5.20;;
20802;SDS011;10562;-33.856;151.182;2023-07-13T10:32:43;8.27;;;4.15;;
20802;SDS011;10562;-33.856;151.182;2023-07-13T10:35:15;6.93;;;3.67;;
20802;SDS011;10562;-33.856;151.182;2023-07-13T10:37:49;11.30;;;5.03;;
20802;SDS011;10562;-33.856;151.182;2023-07-13T10:40:25;13.27;;;6.72;;
20802;SDS011;10562;-33.856;151.182;2023-07-13T10:43:01;13.43;;;6.32;;
20802;SDS011;10562;-33.856;151.182;2023-07-13T10:45:39;11.88;;;6.60;;
20802;SDS011;10562;-33.856;151.182;2023-07-13T10:48:13;11.98;;;5.88;;
20802;SDS011;10562;-33.856;151.182;2023-07-13T10:50:45;10.32;;;5.50;;
20802;SDS011;10562;-33.856;151.182;2023-07-13T10:53:19;9.70;;;4.78;;
20802;SDS011;10562;-33.856;151.182;2023-07-13T10:56:00;10.55;;;4.50;;
20802;SDS011;10562;-33.856;151.182;2023-07-13T10:58:32;7.93;;;3.60;;
20802;SDS011;10562;-33.856;151.182;2023-07-13T11:01:07;7.07;;;3.67;;
20802;SDS011;10562;-33.856;151.182;2023-07-13T11:03:47;7.72;;;3.58;;
20802;SDS011;10562;-33.856;151.182;2023-07-13T11:06:30;9.02;;;3.58;;
20802;SDS011;10562;-33.856;151.182;2023-07-13T11:09:18;6.40;;;3.47;;
20802;SDS011;10562;-33.856;151.182;2023-07-13T11:12:00;6.72;;;3.40;;
20802;SDS011;10562;-33.856;151.182;2023-07-13T11:14:36;7.78;;;3.47;;
20802;SDS011;10562;-33.856;151.182;2023-07-13T11:20:21;7.20;;;3.50;;
20802;SDS011;10562;-33.856;151.182;2023-07-13T11:25:59;9.27;;;3.70;;
20802;SDS011;10562;-33.856;151.182;2023-07-13T11:28:31;6.75;;;3.75;;
20802;SDS011;10562;-33.856;151.182;2023-07-13T11:31:03;7.05;;;3.42;;
20802;SDS011;10562;-33.856;151.182;2023-07-13T11:33:56;10.20;;;3.53;;
20802;SDS011;10562;-33.856;151.182;2023-07-13T11:36:31;11.60;;;3.60;;
20802;SDS011;10562;-33.856;151.182;2023-07-13T11:39:11;8.60;;;3.53;;
20802;SDS011;10562;-33.856;151.182;2023-07-13T11:41:49;7.32;;;4.00;;
20802;SDS011;10562;-33.856;151.182;2023-07-13T11:44:21;10.70;;;4.32;;
20802;SDS011;10562;-33.856;151.182;2023-07-13T11:46:53;12.18;;;5.50;;
20802;SDS011;10562;-33.856;151.182;2023-07-13T11:49:28;9.95;;;4.63;;
20802;SDS011;10562;-33.856;151.182;2023-07-13T11:52:02;8.50;;;3.92;;
20802;SDS011;10562;-33.856;151.182;2023-07-13T11:54:41;8.73;;;3.80;;
20802;SDS011;10562;-33.856;151.182;2023-07-13T11:57:19;10.82;;;4.57;;
20802;SDS011;10562;-33.856;151.182;2023-07-13T11:59:55;9.65;;;4.90;;
20802;SDS011;10562;-33.856;151.182;2023-07-13T12:02:28;9.85;;;4.70;;
20802;SDS011;10562;-33.856;151.182;2023-07-13T12:05:01;8.82;;;3.88;;
20802;SDS011;10562;-33.856;151.182;2023-07-13T12:07:37;7.13;;;3.95;;
20802;SDS011;10562;-33.856;151.182;2023-07-13T12:10:15;10.18;;;4.25;;
20802;SDS011;10562;-33.856;151.182;2023-07-13T12:12:48;13.10;;;4.50;;
20802;SDS011;10562;-33.856;151.182;2023-07-13T12:15:22;9.27;;;4.03;;
20802;SDS011;10562;-33.856;151.182;2023-07-13T12:17:56;8.90;;;3.80;;
20802;SDS011;10562;-33.856;151.182;2023-07-13T12:20:33;9.02;;;3.78;;
20802;SDS011;10562;-33.856;151.182;2023-07-13T12:23:10;8.23;;;3.70;;
20802;SDS011;10562;-33.856;151.182;2023-07-13T12:25:50;8.50;;;3.97;;
20802;SDS011;10562;-33.856;151.182;2023-07-13T12:28:21;9.63;;;4.00;;
20802;SDS011;10562;-33.856;151.182;2023-07-13T12:31:00;9.80;;;3.80;;
20802;SDS011;10562;-33.856;151.182;2023-07-13T12:33:32;7.45;;;3.90;;
20802;SDS011;10562;-33.856;151.182;2023-07-13T12:36:04;7.13;;;3.95;;
20802;SDS011;10562;-33.856;151.182;2023-07-13T12:38:39;8.55;;;4.43;;
20802;SDS011;10562;-33.856;151.182;2023-07-13T12:41:14;10.88;;;4.72;;
20802;SDS011;10562;-33.856;151.182;2023-07-13T12:43:45;8.05;;;3.85;;
20802;SDS011;10562;-33.856;151.182;2023-07-13T12:46:17;7.65;;;4.13;;
20802;SDS011;10562;-33.856;151.182;2023-07-13T12:48:50;9.40;;;4.07;;
20802;SDS011;10562;-33.856;151.182;2023-07-13T12:51:22;7.80;;;3.80;;
20802;SDS011;10562;-33.856;151.182;2023-07-13T12:54:11;8.73;;;4.18;;
20802;SDS011;10562;-33.856;151.182;2023-07-13T12:56:45;9.02;;;3.90;;
20802;SDS011;10562;-33.856;151.182;2023-07-13T12:59:24;7.35;;;4.25;;
20802;SDS011;10562;-33.856;151.182;2023-07-13T13:01:59;8.18;;;4.32;;
20802;SDS011;10562;-33.856;151.182;2023-07-13T13:04:30;8.68;;;3.90;;
20802;SDS011;10562;-33.856;151.182;2023-07-13T13:07:01;7.38;;;3.90;;
20802;SDS011;10562;-33.856;151.182;2023-07-13T13:09:35;9.00;;;3.58;;
20802;SDS011;10562;-33.856;151.182;2023-07-13T13:12:06;7.18;;;3.50;;
20802;SDS011;10562;-33.856;151.182;2023-07-13T13:14:37;6.70;;;3.35;;
20802;SDS011;10562;-33.856;151.182;2023-07-13T13:17:11;7.80;;;3.40;;
20802;SDS011;10562;-33.856;151.182;2023-07-13T13:19:50;7.82;;;3.42;;
20802;SDS011;10562;-33.856;151.182;2023-07-13T13:22:21;6.07;;;3.22;;
20802;SDS011;10562;-33.856;151.182;2023-07-13T13:24:54;7.70;;;3.30;;
20802;SDS011;10562;-33.856;151.182;2023-07-13T13:27:25;5.93;;;3.00;;
20802;SDS011;10562;-33.856;151.182;2023-07-13T13:29:57;7.65;;;3.35;;
20802;SDS011;10562;-33.856;151.182;2023-07-13T13:32:28;6.05;;;3.00;;
20802;SDS011;10562;-33.856;151.182;2023-07-13T13:34:59;7.13;;;3.05;;
20802;SDS011;10562;-33.856;151.182;2023-07-13T13:37:30;5.93;;;3.15;;
20802;SDS011;10562;-33.856;151.182;2023-07-13T13:40:04;6.10;;;2.80;;
20802;SDS011;10562;-33.856;151.182;2023-07-13T13:42:42;7.57;;;2.90;;
20802;SDS011;10562;-33.856;151.182;2023-07-13T13:45:12;5.50;;;2.97;;
20802;SDS011;10562;-33.856;151.182;2023-07-13T13:47:44;7.72;;;3.20;;
20802;SDS011;10562;-33.856;151.182;2023-07-13T13:50:16;8.65;;;3.08;;
20802;SDS011;10562;-33.856;151.182;2023-07-13T13:52:49;6.47;;;2.92;;
20802;SDS011;10562;-33.856;151.182;2023-07-13T13:55:23;9.35;;;3.10;;
20802;SDS011;10562;-33.856;151.182;2023-07-13T13:57:54;6.72;;;3.08;;
20802;SDS011;10562;-33.856;151.182;2023-07-13T14:00:24;5.80;;;2.97;;
20802;SDS011;10562;-33.856;151.182;2023-07-13T14:02:55;8.68;;;2.90;;
20802;SDS011;10562;-33.856;151.182;2023-07-13T14:05:26;6.15;;;3.17;;
20802;SDS011;10562;-33.856;151.182;2023-07-13T14:07:57;5.68;;;3.20;;
20802;SDS011;10562;-33.856;151.182;2023-07-13T14:10:29;5.80;;;2.97;;
20802;SDS011;10562;-33.856;151.182;2023-07-13T14:13:00;6.00;;;2.95;;
20802;SDS011;10562;-33.856;151.182;2023-07-13T14:15:32;6.95;;;2.97;;
20802;SDS011;10562;-33.856;151.182;2023-07-13T14:18:03;7.05;;;2.83;;
20802;SDS011;10562;-33.856;151.182;2023-07-13T14:20:34;5.70;;;2.95;;
20802;SDS011;10562;-33.856;151.182;2023-07-13T14:23:05;6.13;;;2.80;;
20802;SDS011;10562;-33.856;151.182;2023-07-13T14:25:37;5.90;;;2.83;;
20802;SDS011;10562;-33.856;151.182;2023-07-13T14:28:14;6.00;;;2.97;;
20802;SDS011;10562;-33.856;151.182;2023-07-13T14:30:51;5.68;;;2.83;;
20802;SDS011;10562;-33.856;151.182;2023-07-13T14:33:22;6.78;;;2.53;;
20802;SDS011;10562;-33.856;151.182;2023-07-13T14:35:53;6.90;;;2.95;;
20802;SDS011;10562;-33.856;151.182;2023-07-13T14:38:24;5.20;;;2.60;;
20802;SDS011;10562;-33.856;151.182;2023-07-13T14:40:57;4.80;;;2.83;;
20802;SDS011;10562;-33.856;151.182;2023-07-13T14:43:28;5.70;;;2.50;;
20802;SDS011;10562;-33.856;151.182;2023-07-13T14:45:59;3.80;;;2.22;;
20802;SDS011;10562;-33.856;151.182;2023-07-13T14:48:30;5.88;;;2.08;;
20802;SDS011;10562;-33.856;151.182;2023-07-13T14:51:01;4.78;;;2.10;;
20802;SDS011;10562;-33.856;151.182;2023-07-13T14:53:32;5.25;;;1.92;;
20802;SDS011;10562;-33.856;151.182;2023-07-13T14:56:10;5.75;;;2.00;;